메인 페이지
METAR-TAF:

METAR-TAF

공항 :

토론토, 온타리오, 캐나다

토론토 피어슨 국제공항

위도: 43-40N, 경도: 079-38W, 고도: 173m

현재 날씨관측

예보는 16분 전, 19:00시(UTC)에 발표되었습니다.
남남서11kt
온도 1°C
습도 59%
기압 1009 hPa
시정: 24.1km
고도 18000ft 상공 구름 조금
고도 26000ft 상공 구름 보통

METAR: CYYZ 191900Z 21011KT 15SM FEW180 SCT260 01/M06 A2980 RMK AC1CI3 AC TR SLP102

시각: 14:16 (19:16 UTC)

예보

예보는 1 시간 38분 전, 17:38시(UTC)에 발표되었습니다.
예보 대상 시간: 19일 18시부터 20일 24시까지 (UTC)
남서15kt
시정: 10km
고도 2000ft 상공 구름 조금
고도 22000ft 상공 구름 보통
20일 0200시부터 (UTC)
남서12kt
시정: 10km
고도 16000ft 상공 구름 많음
20일 0900시부터 (UTC)
남서15kt
시정: 10km
고도 2000ft 상공 구름 많음
고도 18000ft 상공 흐림
전환 중
20일 14시부터 20일 16시까지 (UTC)
15kt, 순간 최대 풍속 25kt
전환 중
20일 20시부터 20일 22시까지 (UTC)
15kt

TAF: CYYZ 191738Z 1918/2024 23015KT P6SM FEW020 SCT220 FM200200 23012KT WS010/24042KT P6SM BKN160 FM200900 23015KT P6SM BKN020 OVC180 BECMG 2014/2016 26015G25KT BECMG 2020/2022 26015KT RMK NXT FCST BY 192100Z

4,000개 이상의 공항 관측 자료 및 예보 (METAR 및 TAF 보고).

지도상에서 검색 가능한 기상관측소가 노란 점과 빨간 점으로 표시되어 있습니다.

기상관측소 명을 보려면 표시 위로 마우스를 이동하세요.

날씨 관측과 예보를 보려면 클릭하세요.

지도 변경 : 확대하려면 엑스 표시가 있는 녹색 버튼, 축소하려면 빼기 표시가 있는 녹색 버튼, 다음 페이지의 지도를 보려면 녹색 화살표를 클릭하세요.


METAR-TAF: